Time;durP1;ratioP1;P1;durP2;ratioP2;P2;SDS_P1;SDS_P2;PMS_P1;PMS_P2;Temp;Humidity;BMP_temperature;BMP_pressure;BME280_temperature;BME280_humidity;BME280_pressure;Samples;Min_cycle;Max_cycle;Signal;HPM_P1;HPM_P2
2022/04/15 00:02:05;;;;;;;13.57;9.40;;;6.40;99.90;;;;;;4824815;29;20508;-66
2022/04/15 00:04:31;;;;;;;14.60;9.00;;;6.40;99.90;;;;;;4825726;29;20069;-65
2022/04/15 00:06:57;;;;;;;15.35;9.52;;;6.30;99.90;;;;;;4808624;29;20063;-66
2022/04/15 00:09:23;;;;;;;15.30;9.20;;;6.30;99.90;;;;;;4824497;29;20060;-65
2022/04/15 00:11:48;;;;;;;15.15;8.38;;;6.30;99.90;;;;;;4822674;29;20058;-67
2022/04/15 00:14:14;;;;;;;17.60;9.00;;;6.30;99.90;;;;;;4824289;29;20046;-68
2022/04/15 00:16:43;;;;;;;17.20;10.07;;;6.20;99.90;;;;;;4823634;29;20054;-67
2022/04/15 00:19:10;;;;;;;13.20;9.32;;;6.10;99.90;;;;;;4815642;29;20075;-66
2022/04/15 00:21:36;;;;;;;16.35;9.45;;;6.20;99.90;;;;;;4820422;29;20066;-67
2022/04/15 00:24:01;;;;;;;10.50;8.57;;;6.20;99.90;;;;;;4824041;29;20098;-67
2022/04/15 00:26:27;;;;;;;15.85;9.80;;;6.20;99.90;;;;;;4820129;29;20146;-67
2022/04/15 00:28:52;;;;;;;14.63;9.77;;;6.10;99.90;;;;;;4789865;29;20066;-66
2022/04/15 00:31:19;;;;;;;13.98;8.70;;;6.10;99.90;;;;;;4790142;29;20062;-65
2022/04/15 00:33:44;;;;;;;15.55;9.80;;;6.10;99.90;;;;;;4802969;29;20062;-67
2022/04/15 00:36:10;;;;;;;14.07;8.73;;;6.10;99.90;;;;;;4804733;29;20061;-65
2022/04/15 00:38:35;;;;;;;15.68;9.10;;;6.00;99.90;;;;;;4810772;29;20050;-65
2022/04/15 00:41:01;;;;;;;12.85;8.55;;;6.00;99.90;;;;;;4805290;29;20081;-67
2022/04/15 00:43:26;;;;;;;13.02;8.88;;;5.90;99.90;;;;;;4806147;29;20078;-66
2022/04/15 00:45:52;;;;;;;15.18;8.85;;;6.00;99.90;;;;;;4807525;29;20051;-67
2022/04/15 00:48:19;;;;;;;16.38;9.52;;;5.90;99.90;;;;;;4824575;29;20107;-66
2022/04/15 00:50:45;;;;;;;13.60;9.32;;;5.90;99.90;;;;;;4808252;29;20115;-66
2022/04/15 00:53:12;;;;;;;13.38;9.02;;;5.90;99.90;;;;;;4808345;29;20054;-66
2022/04/15 00:55:39;;;;;;;18.10;9.10;;;5.80;99.90;;;;;;4823181;29;20066;-65
2022/04/15 00:58:06;;;;;;;13.20;9.10;;;5.80;99.90;;;;;;4822894;29;20114;-65
2022/04/15 01:00:33;;;;;;;18.55;9.02;;;5.80;99.90;;;;;;4824101;29;20472;-66
2022/04/15 01:03:02;;;;;;;12.30;8.55;;;5.80;99.90;;;;;;4807516;29;20058;-65
2022/04/15 01:05:28;;;;;;;17.00;8.70;;;5.80;99.90;;;;;;4807947;29;20054;-67
2022/04/15 01:07:55;;;;;;;13.80;9.38;;;5.80;99.90;;;;;;4807687;29;20054;-65
2022/04/15 01:10:22;;;;;;;13.80;8.88;;;5.90;99.90;;;;;;4806522;29;20058;-66
2022/04/15 01:12:53;;;;;;;13.45;8.73;;;5.90;99.90;;;;;;4815476;29;20050;-66
2022/04/15 01:15:20;;;;;;;13.70;8.63;;;5.90;99.90;;;;;;4806028;29;20046;-68
2022/04/15 01:17:45;;;;;;;14.77;9.32;;;6.00;99.90;;;;;;4819594;29;20058;-65
2022/04/15 01:20:12;;;;;;;12.80;8.50;;;6.00;99.90;;;;;;4806780;29;20146;-65
2022/04/15 01:22:46;;;;;;;12.57;8.85;;;6.00;99.90;;;;;;4807308;29;20129;-66
2022/04/15 01:25:14;;;;;;;14.30;9.50;;;6.10;99.90;;;;;;4823658;29;20066;-66
2022/04/15 01:27:45;;;;;;;14.20;8.60;;;6.20;99.90;;;;;;4822260;29;20058;-67
2022/04/15 01:30:12;;;;;;;12.35;9.10;;;6.20;99.90;;;;;;4808170;29;20065;-67
2022/04/15 01:32:37;;;;;;;14.80;8.18;;;6.20;99.90;;;;;;4807010;29;20070;-67
2022/04/15 01:35:06;;;;;;;13.98;8.45;;;6.30;99.90;;;;;;4822382;29;20069;-66
2022/04/15 01:37:31;;;;;;;10.73;8.60;;;6.30;99.90;;;;;;4824135;29;20081;-67
2022/04/15 01:39:57;;;;;;;10.65;8.88;;;6.30;99.90;;;;;;4803923;29;20441;-66
2022/04/15 01:42:23;;;;;;;13.27;8.40;;;6.40;99.90;;;;;;4804236;29;20050;-67
2022/04/15 01:44:48;;;;;;;12.30;8.50;;;6.40;99.90;;;;;;4806947;29;20119;-65
2022/04/15 01:47:16;;;;;;;12.43;8.68;;;6.40;99.90;;;;;;4821893;29;20412;-66
2022/04/15 01:49:42;;;;;;;13.30;8.45;;;6.50;99.90;;;;;;4813259;29;20537;-66
2022/04/15 01:52:07;;;;;;;15.00;8.65;;;6.50;99.90;;;;;;4803944;29;20142;-66
2022/04/15 01:54:33;;;;;;;11.77;8.23;;;6.50;99.90;;;;;;4819056;29;20118;-68
2022/04/15 01:56:59;;;;;;;9.88;7.57;;;6.50;99.90;;;;;;4806612;29;20134;-66
2022/04/15 01:59:25;;;;;;;11.95;8.10;;;6.60;99.90;;;;;;4816205;29;20472;-65
2022/04/15 02:01:54;;;;;;;15.40;8.68;;;6.60;99.90;;;;;;4804039;29;20218;-65
2022/04/15 02:04:24;;;;;;;11.73;8.40;;;6.60;99.90;;;;;;4804084;29;20055;-66
2022/04/15 02:06:50;;;;;;;12.18;8.48;;;6.60;99.90;;;;;;4804469;29;20525;-67
2022/04/15 02:09:15;;;;;;;10.57;8.52;;;6.70;99.90;;;;;;4812729;29;20046;-66
2022/04/15 02:11:41;;;;;;;13.45;8.55;;;6.70;99.90;;;;;;4822391;29;20113;-66
2022/04/15 02:14:07;;;;;;;15.38;8.75;;;6.80;99.90;;;;;;4818150;29;20065;-66
2022/04/15 02:16:33;;;;;;;12.52;8.13;;;6.70;99.90;;;;;;4803713;29;20061;-66
2022/04/15 02:18:59;;;;;;;12.45;8.07;;;6.80;99.90;;;;;;4810186;29;20508;-66
2022/04/15 02:21:24;;;;;;;13.00;8.05;;;6.80;99.90;;;;;;4822438;29;20061;-67
2022/04/15 02:23:50;;;;;;;10.05;7.97;;;6.80;99.90;;;;;;4822996;29;20051;-66
2022/04/15 02:26:15;;;;;;;12.18;7.85;;;6.80;99.90;;;;;;4806957;29;20088;-66
2022/04/15 02:28:41;;;;;;;12.18;8.75;;;6.90;99.90;;;;;;4821829;29;20059;-66
2022/04/15 02:31:07;;;;;;;12.18;8.02;;;6.90;99.90;;;;;;4821536;29;20051;-67
2022/04/15 02:33:32;;;;;;;11.73;8.77;;;6.90;99.90;;;;;;4807203;29;20119;-66
2022/04/15 02:35:58;;;;;;;13.18;8.90;;;6.90;99.90;;;;;;4823984;29;20054;-65
2022/04/15 02:38:23;;;;;;;12.85;7.90;;;7.00;99.90;;;;;;4824645;29;20066;-66
2022/04/15 02:40:49;;;;;;;14.32;8.23;;;7.00;99.90;;;;;;4807564;29;20138;-66
2022/04/15 02:43:15;;;;;;;11.48;8.25;;;7.00;99.90;;;;;;4808420;29;20416;-65
2022/04/15 02:45:41;;;;;;;16.38;8.65;;;7.00;99.90;;;;;;4809968;29;20103;-66
2022/04/15 02:48:07;;;;;;;14.40;8.73;;;7.00;99.90;;;;;;4809963;29;20062;-67
2022/04/15 02:50:33;;;;;;;10.85;7.45;;;7.10;99.90;;;;;;4813456;29;20102;-66
2022/04/15 02:52:59;;;;;;;11.05;8.35;;;7.00;99.90;;;;;;4810062;29;20512;-67
2022/04/15 02:55:26;;;;;;;14.10;9.02;;;7.00;99.90;;;;;;4817721;29;20408;-67
2022/04/15 02:57:52;;;;;;;12.32;8.45;;;7.10;99.90;;;;;;4809605;29;20052;-66
2022/04/15 03:00:18;;;;;;;13.98;8.40;;;7.10;99.90;;;;;;4826100;29;20504;-66
2022/04/15 03:02:44;;;;;;;12.52;9.07;;;7.10;99.90;;;;;;4821697;29;20154;-66
2022/04/15 03:05:10;;;;;;;11.63;7.82;;;7.10;99.90;;;;;;4792705;29;20151;-67
2022/04/15 03:07:39;;;;;;;13.45;7.95;;;7.10;99.90;;;;;;4824575;29;20137;-66
2022/04/15 03:10:06;;;;;;;11.38;8.20;;;7.20;99.90;;;;;;4826256;29;20115;-66
2022/04/15 03:12:38;;;;;;;12.00;7.57;;;7.20;99.90;;;;;;4809414;29;20062;-66
2022/04/15 03:15:06;;;;;;;10.60;7.80;;;7.20;99.90;;;;;;4810243;29;20386;-67
2022/04/15 03:17:33;;;;;;;11.52;8.38;;;7.20;99.90;;;;;;4809524;29;20119;-66
2022/04/15 03:20:02;;;;;;;9.95;7.90;;;7.30;99.90;;;;;;4825925;29;20062;-68
2022/04/15 03:22:28;;;;;;;13.35;8.60;;;7.30;99.90;;;;;;4809867;29;20457;-66
2022/04/15 03:24:54;;;;;;;10.50;8.07;;;7.30;99.90;;;;;;4825658;29;20505;-68
2022/04/15 03:27:20;;;;;;;11.60;8.35;;;7.30;99.90;;;;;;4825812;29;20138;-66
2022/04/15 03:29:45;;;;;;;13.50;8.38;;;7.30;99.90;;;;;;4809541;29;20054;-66
2022/04/15 03:32:11;;;;;;;13.63;8.38;;;7.30;99.90;;;;;;4809070;29;20054;-68
2022/04/15 03:34:36;;;;;;;12.90;8.68;;;7.30;99.90;;;;;;4809175;29;20065;-67
2022/04/15 03:37:03;;;;;;;14.73;8.85;;;7.30;99.90;;;;;;4825622;29;20059;-67
2022/04/15 03:39:29;;;;;;;14.07;8.40;;;7.30;99.90;;;;;;4824539;29;20062;-66
2022/04/15 03:41:54;;;;;;;12.70;8.20;;;7.30;99.90;;;;;;4823683;29;20059;-67
2022/04/15 03:44:20;;;;;;;13.43;8.60;;;7.30;99.90;;;;;;4808942;29;20102;-65
2022/04/15 03:46:45;;;;;;;11.73;7.75;;;7.30;99.90;;;;;;4807916;29;20162;-66
2022/04/15 03:49:11;;;;;;;11.45;8.43;;;7.40;99.90;;;;;;4821530;29;20051;-66
2022/04/15 03:51:37;;;;;;;14.82;8.93;;;7.30;99.90;;;;;;4806581;29;20058;-67
2022/04/15 03:54:02;;;;;;;11.88;8.30;;;7.30;99.90;;;;;;4820526;29;20381;-67
2022/04/15 03:56:28;;;;;;;13.98;9.55;;;7.30;99.90;;;;;;4820536;29;20058;-67
2022/04/15 03:58:53;;;;;;;11.40;7.97;;;7.30;99.90;;;;;;4824840;29;20050;-67
2022/04/15 04:01:19;;;;;;;18.83;9.57;;;7.40;99.90;;;;;;4825371;29;20479;-67
2022/04/15 04:03:45;;;;;;;13.57;8.02;;;7.30;99.90;;;;;;4808450;29;20046;-66
2022/04/15 04:06:11;;;;;;;11.25;8.15;;;7.30;99.90;;;;;;4809163;29;20245;-67
2022/04/15 04:08:36;;;;;;;16.15;8.38;;;7.30;99.90;;;;;;4825562;29;20064;-67
2022/04/15 04:11:02;;;;;;;12.93;8.75;;;7.30;99.90;;;;;;4825127;29;20140;-67
2022/04/15 04:13:28;;;;;;;12.55;8.55;;;7.30;99.90;;;;;;4824803;29;20058;-67
2022/04/15 04:15:54;;;;;;;12.25;8.23;;;7.40;99.90;;;;;;4809542;29;20054;-66
2022/04/15 04:18:21;;;;;;;14.60;8.38;;;7.40;99.90;;;;;;4809307;29;20133;-67
2022/04/15 04:20:47;;;;;;;12.82;8.25;;;7.40;99.90;;;;;;4824111;29;20062;-69
2022/04/15 04:23:13;;;;;;;14.38;8.35;;;7.50;99.90;;;;;;4823359;29;20464;-66
2022/04/15 04:25:38;;;;;;;9.30;7.32;;;7.40;99.90;;;;;;4823511;29;20073;-68
2022/04/15 04:28:04;;;;;;;12.23;7.90;;;7.50;99.90;;;;;;4807770;29;20054;-67
2022/04/15 04:30:30;;;;;;;14.15;8.73;;;7.50;99.90;;;;;;4825144;29;20054;-65
2022/04/15 04:32:58;;;;;;;11.32;7.50;;;7.50;99.90;;;;;;4810147;29;20188;-67
2022/04/15 04:35:23;;;;;;;11.68;8.07;;;7.50;99.90;;;;;;4791759;29;20086;-64
2022/04/15 04:37:49;;;;;;;11.18;8.07;;;7.50;99.90;;;;;;4808101;29;20521;-66
2022/04/15 04:40:15;;;;;;;11.43;7.82;;;7.50;99.90;;;;;;4808576;29;20122;-66
2022/04/15 04:42:42;;;;;;;12.15;7.53;;;7.50;99.90;;;;;;4823988;29;20065;-68
2022/04/15 04:45:10;;;;;;;12.20;7.80;;;7.50;99.90;;;;;;4808525;29;20478;-66
2022/04/15 04:47:38;;;;;;;8.98;7.25;;;7.60;99.90;;;;;;4807777;29;20059;-68
2022/04/15 04:50:06;;;;;;;13.60;8.43;;;7.50;99.90;;;;;;4807986;29;20058;-67
2022/04/15 04:52:31;;;;;;;13.00;7.32;;;7.60;99.90;;;;;;4807971;29;20481;-68
2022/04/15 04:54:57;;;;;;;9.98;8.20;;;7.60;99.90;;;;;;4818638;29;20082;-66
2022/04/15 04:57:22;;;;;;;10.73;7.38;;;7.70;99.90;;;;;;4804315;29;20063;-66
2022/04/15 04:59:48;;;;;;;12.50;8.18;;;7.70;99.90;;;;;;4809701;29;20054;-67
2022/04/15 05:02:13;;;;;;;12.88;8.48;;;7.70;99.90;;;;;;4824049;29;20107;-67
2022/04/15 05:04:40;;;;;;;10.60;8.73;;;7.70;99.90;;;;;;4805645;29;20123;-66
2022/04/15 05:07:06;;;;;;;14.38;8.65;;;7.80;99.90;;;;;;4807323;29;20054;-67
2022/04/15 05:09:32;;;;;;;11.77;9.40;;;7.80;99.90;;;;;;4824078;29;20064;-67
2022/04/15 05:11:57;;;;;;;11.90;9.57;;;7.80;99.90;;;;;;4806493;29;20110;-64
2022/04/15 05:14:23;;;;;;;12.60;9.45;;;7.80;99.90;;;;;;4811899;29;20074;-66
2022/04/15 05:16:48;;;;;;;12.02;8.75;;;7.80;99.90;;;;;;4795311;29;20142;-67
2022/04/15 05:19:14;;;;;;;9.02;8.05;;;7.80;99.90;;;;;;4804829;29;20079;-66
2022/04/15 05:21:40;;;;;;;11.13;8.00;;;7.90;99.90;;;;;;4807598;29;20564;-65
2022/04/15 05:24:09;;;;;;;9.68;8.60;;;7.90;99.90;;;;;;4822342;29;20081;-66
2022/04/15 05:26:36;;;;;;;9.57;7.20;;;7.90;99.90;;;;;;4803661;29;20411;-66
2022/04/15 05:29:02;;;;;;;10.65;7.22;;;7.90;99.90;;;;;;4805975;29;20115;-66
2022/04/15 05:31:28;;;;;;;8.13;6.65;;;7.90;99.90;;;;;;4820333;29;20063;-67
2022/04/15 05:33:53;;;;;;;7.40;6.43;;;7.90;99.90;;;;;;4804562;29;20496;-66
2022/04/15 05:36:19;;;;;;;8.32;6.50;;;7.90;99.90;;;;;;4806835;29;20569;-64
2022/04/15 05:38:45;;;;;;;8.93;6.35;;;7.90;99.90;;;;;;4807423;29;20054;-65
2022/04/15 05:41:10;;;;;;;7.13;5.90;;;8.00;99.90;;;;;;4824009;29;20058;-65
2022/04/15 05:43:37;;;;;;;9.00;6.32;;;8.00;99.90;;;;;;4806422;29;20058;-65
2022/04/15 05:46:03;;;;;;;6.70;5.88;;;8.00;99.90;;;;;;4824418;29;20573;-67
2022/04/15 05:48:29;;;;;;;6.85;5.75;;;8.00;99.90;;;;;;4822376;29;20142;-68
2022/04/15 05:50:54;;;;;;;7.35;5.88;;;8.10;99.90;;;;;;4814177;29;20055;-66
2022/04/15 05:53:20;;;;;;;6.55;5.60;;;8.10;99.90;;;;;;4802633;29;20050;-66
2022/04/15 05:55:45;;;;;;;5.70;5.15;;;8.10;99.90;;;;;;4813904;29;20122;-66
2022/04/15 05:58:11;;;;;;;6.35;4.90;;;8.10;99.90;;;;;;4822912;29;20065;-65
2022/04/15 06:00:37;;;;;;;5.82;4.75;;;8.00;99.90;;;;;;4822644;29;20059;-66
2022/04/15 06:03:03;;;;;;;5.90;5.30;;;8.10;99.90;;;;;;4823672;29;20078;-66
2022/04/15 06:05:29;;;;;;;6.03;4.75;;;8.00;99.90;;;;;;4810163;29;20150;-67
2022/04/15 06:07:54;;;;;;;5.03;4.43;;;8.00;99.90;;;;;;4789473;29;20467;-68
2022/04/15 06:10:20;;;;;;;5.53;4.38;;;8.00;99.90;;;;;;4791304;29;20535;-67
2022/04/15 06:12:57;;;;;;;5.13;4.65;;;8.00;99.90;;;;;;4806005;29;20079;-67
2022/04/15 06:15:31;;;;;;;4.95;4.45;;;8.00;99.90;;;;;;4827305;29;20058;-66
2022/04/15 06:18:00;;;;;;;5.85;4.00;;;7.90;99.90;;;;;;4826689;29;20066;-66
2022/04/15 06:20:27;;;;;;;4.80;4.28;;;7.90;99.90;;;;;;4825661;29;20129;-66
2022/04/15 06:22:53;;;;;;;5.75;3.90;;;7.90;99.90;;;;;;4826430;29;20393;-65
2022/04/15 06:25:19;;;;;;;4.80;3.67;;;7.90;99.90;;;;;;4825108;29;20070;-67
2022/04/15 06:27:44;;;;;;;5.70;4.13;;;7.90;99.90;;;;;;4809915;29;20058;-67
2022/04/15 06:30:10;;;;;;;5.72;4.50;;;7.90;99.90;;;;;;4810269;29;20106;-68
2022/04/15 06:32:36;;;;;;;4.75;4.35;;;7.90;99.90;;;;;;4815846;29;20173;-67
2022/04/15 06:35:03;;;;;;;5.00;4.50;;;7.90;99.90;;;;;;4821260;29;20532;-66
2022/04/15 06:37:29;;;;;;;5.60;5.03;;;7.90;99.90;;;;;;4809898;29;20396;-66
2022/04/15 06:39:54;;;;;;;5.15;4.47;;;7.90;99.90;;;;;;4810576;29;20054;-66
2022/04/15 06:42:21;;;;;;;5.57;4.70;;;7.90;99.90;;;;;;4809845;29;20143;-67
2022/04/15 06:44:47;;;;;;;5.18;4.68;;;7.90;99.90;;;;;;4810370;29;20061;-66
2022/04/15 06:47:13;;;;;;;6.22;4.90;;;7.90;99.90;;;;;;4827429;29;20404;-67
2022/04/15 06:49:38;;;;;;;5.15;4.57;;;7.90;99.90;;;;;;4821740;29;20058;-67
2022/04/15 06:52:04;;;;;;;5.13;4.38;;;7.90;99.90;;;;;;4808771;29;20058;-66
2022/04/15 06:54:30;;;;;;;6.57;4.80;;;7.90;99.90;;;;;;4825727;29;20054;-65
2022/04/15 06:56:56;;;;;;;7.47;4.93;;;7.90;99.90;;;;;;4825319;29;20068;-68
2022/04/15 06:59:22;;;;;;;7.55;5.18;;;7.90;99.90;;;;;;4832401;29;20047;-67
2022/04/15 07:01:47;;;;;;;7.70;5.60;;;7.90;99.90;;;;;;4825824;29;20046;-66
2022/04/15 07:04:13;;;;;;;5.53;4.95;;;7.90;99.90;;;;;;4809788;29;20498;-66
2022/04/15 07:06:38;;;;;;;7.45;5.80;;;7.90;99.90;;;;;;4823730;29;20389;-66
2022/04/15 07:09:04;;;;;;;6.20;5.55;;;7.90;99.90;;;;;;4809561;29;20131;-65
2022/04/15 07:11:29;;;;;;;6.53;5.15;;;7.90;99.90;;;;;;4825765;29;20102;-65
2022/04/15 07:13:55;;;;;;;6.57;5.72;;;7.90;99.90;;;;;;4808822;29;20450;-65
2022/04/15 07:16:21;;;;;;;7.63;6.13;;;8.00;99.90;;;;;;4807400;29;20066;-66
2022/04/15 07:18:46;;;;;;;6.50;5.47;;;7.90;99.90;;;;;;4791402;29;20088;-65
2022/04/15 07:21:12;;;;;;;7.90;6.07;;;8.00;99.90;;;;;;4811071;29;20129;-66
2022/04/15 07:23:37;;;;;;;7.57;6.35;;;8.00;99.90;;;;;;4825730;29;20133;-65
2022/04/15 07:26:03;;;;;;;7.60;6.47;;;8.10;99.90;;;;;;4810204;29;20062;-65
2022/04/15 07:28:29;;;;;;;8.32;7.43;;;8.10;99.90;;;;;;4824396;29;20073;-66
2022/04/15 07:30:54;;;;;;;10.60;6.80;;;8.20;99.90;;;;;;4825828;29;20062;-65
2022/04/15 07:33:20;;;;;;;9.70;7.45;;;8.20;99.90;;;;;;4824239;29;20050;-66
2022/04/15 07:35:46;;;;;;;8.05;6.82;;;8.20;99.90;;;;;;4824675;29;20068;-67
2022/04/15 07:38:11;;;;;;;10.43;7.47;;;8.20;99.90;;;;;;4824229;29;20129;-65
2022/04/15 07:40:37;;;;;;;9.95;7.65;;;8.30;99.90;;;;;;4824986;29;20107;-67
2022/04/15 07:43:02;;;;;;;8.88;7.28;;;8.30;99.90;;;;;;4808956;29;20129;-66
2022/04/15 07:45:28;;;;;;;9.68;7.68;;;8.30;99.90;;;;;;4816874;29;20063;-67
2022/04/15 07:47:54;;;;;;;11.68;8.30;;;8.40;99.90;;;;;;4790903;29;20555;-67
2022/04/15 07:50:25;;;;;;;10.88;8.55;;;8.40;99.90;;;;;;4807752;29;20169;-67
2022/04/15 07:52:56;;;;;;;14.93;9.73;;;8.40;99.90;;;;;;4813480;29;20050;-66
2022/04/15 07:55:21;;;;;;;14.00;9.55;;;8.50;99.90;;;;;;4825695;29;20060;-66
2022/04/15 07:57:48;;;;;;;12.30;9.65;;;8.50;99.90;;;;;;4823782;29;20433;-66
2022/04/15 08:00:14;;;;;;;13.77;9.00;;;8.50;99.90;;;;;;4826022;29;20058;-66
2022/04/15 08:02:40;;;;;;;13.73;9.68;;;8.50;99.90;;;;;;4809005;29;20483;-65
2022/04/15 08:05:05;;;;;;;14.05;9.52;;;8.60;99.90;;;;;;4808907;29;20069;-67
2022/04/15 08:07:31;;;;;;;15.70;10.60;;;8.70;99.90;;;;;;4808739;29;20062;-67
2022/04/15 08:09:57;;;;;;;15.20;10.15;;;8.70;99.90;;;;;;4825330;29;20066;-65
2022/04/15 08:12:22;;;;;;;14.10;9.20;;;8.70;99.90;;;;;;4823380;29;20054;-67
2022/04/15 08:14:48;;;;;;;12.88;9.45;;;8.80;99.90;;;;;;4808884;29;20058;-67
2022/04/15 08:17:13;;;;;;;14.00;9.27;;;8.80;99.90;;;;;;4809188;29;20516;-65
2022/04/15 08:19:39;;;;;;;17.17;10.30;;;8.90;99.90;;;;;;4825143;29;20492;-66
2022/04/15 08:22:09;;;;;;;10.80;8.93;;;9.00;99.90;;;;;;4809107;29;20058;-66
2022/04/15 08:24:38;;;;;;;15.27;10.30;;;9.00;99.90;;;;;;4808528;29;20089;-67
2022/04/15 08:27:04;;;;;;;13.13;9.48;;;9.00;99.90;;;;;;4824401;29;20137;-66
2022/04/15 08:29:29;;;;;;;11.98;9.10;;;9.10;99.90;;;;;;4823891;29;20089;-65
2022/04/15 08:31:55;;;;;;;15.65;9.88;;;9.10;99.90;;;;;;4807885;29;20126;-67
2022/04/15 08:34:20;;;;;;;14.18;9.95;;;9.10;99.90;;;;;;4814350;29;20392;-66
2022/04/15 08:36:52;;;;;;;15.07;9.77;;;9.10;99.90;;;;;;4790585;29;20563;-66
2022/04/15 08:39:18;;;;;;;12.80;8.77;;;9.10;99.90;;;;;;4790143;29;20090;-66
2022/04/15 08:41:44;;;;;;;14.35;9.85;;;9.20;99.90;;;;;;4797849;29;20096;-67
2022/04/15 08:44:10;;;;;;;15.77;10.07;;;9.60;99.90;;;;;;4825219;29;20054;-66
2022/04/15 08:46:36;;;;;;;12.73;9.80;;;9.40;99.90;;;;;;4808101;29;20054;-67
2022/04/15 08:49:02;;;;;;;12.82;10.05;;;9.50;99.90;;;;;;4811495;29;20063;-67
2022/04/15 08:51:29;;;;;;;13.90;9.68;;;9.60;99.90;;;;;;4806542;29;20394;-66
2022/04/15 08:53:56;;;;;;;16.40;10.05;;;9.60;99.90;;;;;;4823438;29;20107;-68
2022/04/15 08:56:22;;;;;;;14.57;10.15;;;9.70;99.90;;;;;;4823374;29;20058;-67
2022/04/15 08:58:48;;;;;;;15.90;9.60;;;9.70;99.90;;;;;;4807689;29;20055;-67
2022/04/15 09:01:14;;;;;;;20.48;9.82;;;9.70;99.90;;;;;;4824404;29;20058;-67
2022/04/15 09:03:40;;;;;;;16.80;9.10;;;9.80;99.90;;;;;;4824230;29;20061;-66
2022/04/15 09:06:16;;;;;;;13.98;9.13;;;9.80;99.90;;;;;;4823562;29;20569;-68
2022/04/15 09:09:08;;;;;;;12.63;8.50;;;9.80;99.90;;;;;;4823776;29;20523;-66
2022/04/15 09:11:36;;;;;;;11.80;8.05;;;9.90;99.90;;;;;;4822090;29;20515;-66
2022/04/15 09:14:22;;;;;;;10.63;7.85;;;9.90;99.90;;;;;;4823956;29;20078;-66
2022/04/15 09:16:48;;;;;;;15.02;7.82;;;10.00;99.90;;;;;;4821613;29;20073;-67
2022/04/15 09:19:15;;;;;;;9.68;7.82;;;10.10;99.90;;;;;;4824104;29;20050;-66
2022/04/15 09:21:52;;;;;;;9.75;7.38;;;10.20;99.90;;;;;;4823233;29;20415;-67
2022/04/15 09:24:25;;;;;;;11.30;7.68;;;10.20;99.90;;;;;;4821647;29;20059;-65
2022/04/15 09:26:53;;;;;;;12.82;7.93;;;10.30;99.90;;;;;;4822249;29;20077;-66
2022/04/15 09:29:21;;;;;;;10.52;6.90;;;10.30;99.90;;;;;;4822974;29;20132;-66
2022/04/15 09:31:47;;;;;;;9.40;6.65;;;10.30;99.90;;;;;;4823822;29;20065;-67
2022/04/15 09:34:13;;;;;;;11.07;7.43;;;10.40;99.90;;;;;;4823368;29;20050;-67
2022/04/15 09:36:39;;;;;;;12.45;7.35;;;10.40;99.90;;;;;;4823099;29;20383;-67
2022/04/15 09:39:10;;;;;;;10.00;7.00;;;10.40;99.90;;;;;;4824168;29;20414;-65
2022/04/15 09:41:36;;;;;;;9.23;7.00;;;10.50;99.90;;;;;;4823690;29;20050;-66
2022/04/15 09:44:01;;;;;;;10.18;6.85;;;10.60;99.90;;;;;;4823988;29;20112;-69
2022/04/15 09:46:29;;;;;;;8.52;6.22;;;10.70;99.90;;;;;;4810119;29;20052;-69
2022/04/15 09:49:02;;;;;;;8.23;6.15;;;10.80;99.90;;;;;;4810295;29;20051;-70
2022/04/15 09:51:33;;;;;;;7.72;6.00;;;10.80;99.90;;;;;;4807946;29;20503;-69
2022/04/15 09:54:07;;;;;;;7.63;5.80;;;10.90;99.90;;;;;;4807653;29;20046;-69
2022/04/15 09:56:35;;;;;;;12.18;5.90;;;11.10;99.90;;;;;;4810413;29;20095;-70
2022/04/15 09:59:09;;;;;;;6.40;5.35;;;11.30;99.90;;;;;;4810789;29;20488;-68
2022/04/15 10:01:45;;;;;;;9.38;5.53;;;11.40;99.90;;;;;;4827166;29;20069;-68
2022/04/15 10:04:13;;;;;;;7.32;5.00;;;11.50;99.90;;;;;;4826561;29;20496;-68
2022/04/15 10:06:40;;;;;;;6.90;5.47;;;11.50;99.90;;;;;;4811062;29;20046;-68
2022/04/15 10:09:10;;;;;;;8.50;5.57;;;11.50;99.90;;;;;;4826589;29;20245;-68
2022/04/15 10:11:41;;;;;;;7.88;4.88;;;11.60;99.90;;;;;;4826329;29;20050;-68
2022/04/15 10:14:11;;;;;;;6.43;4.60;;;11.80;99.90;;;;;;4810243;29;20145;-68
2022/04/15 10:16:38;;;;;;;6.57;4.75;;;11.90;99.90;;;;;;4826975;29;20043;-67
2022/04/15 10:19:04;;;;;;;7.20;5.22;;;12.00;99.90;;;;;;4827135;29;20400;-68
2022/04/15 10:21:39;;;;;;;8.27;5.00;;;12.10;99.90;;;;;;4811089;29;20050;-68
2022/04/15 10:24:09;;;;;;;6.70;4.85;;;12.10;99.90;;;;;;4826823;29;20074;-68
2022/04/15 10:26:45;;;;;;;6.22;4.82;;;12.10;99.90;;;;;;4826463;29;20054;-68
2022/04/15 10:29:12;;;;;;;9.30;5.30;;;12.10;99.90;;;;;;4826286;29;20046;-67
2022/04/15 10:31:46;;;;;;;7.55;5.30;;;12.00;99.90;;;;;;4826488;29;20085;-69
2022/04/15 10:34:17;;;;;;;6.95;6.00;;;12.00;99.90;;;;;;4825394;29;20057;-71
2022/04/15 10:36:48;;;;;;;8.13;6.10;;;12.00;99.90;;;;;;4810161;29;20062;-70
2022/04/15 10:39:19;;;;;;;9.73;5.50;;;12.00;99.90;;;;;;4826798;29;20106;-70
2022/04/15 10:41:53;;;;;;;8.93;5.43;;;12.00;99.90;;;;;;4809744;29;20054;-70
2022/04/15 10:44:39;;;;;;;6.55;5.35;;;12.20;99.90;;;;;;4825371;29;20058;-70
2022/04/15 10:47:25;;;;;;;6.07;5.47;;;12.40;99.90;;;;;;4825964;29;20051;-70
2022/04/15 10:50:03;;;;;;;6.45;5.45;;;12.40;99.90;;;;;;4825590;29;20107;-71
2022/04/15 10:52:30;;;;;;;7.07;5.63;;;12.30;99.90;;;;;;4825945;29;20054;-69
2022/04/15 10:55:07;;;;;;;8.98;5.50;;;12.20;99.90;;;;;;4809582;29;20058;-71
2022/04/15 10:57:36;;;;;;;8.35;5.72;;;12.30;99.90;;;;;;4825445;29;20058;-69
2022/04/15 11:02:56;;;;;;;6.50;5.75;;;12.40;99.90;;;;;;4809454;29;20054;-70
2022/04/15 11:05:43;;;;;;;6.25;5.65;;;12.40;99.90;;;;;;4824808;29;20488;-70
2022/04/15 11:08:12;;;;;;;7.55;5.88;;;12.40;99.90;;;;;;4809324;29;20062;-70
2022/04/15 11:14:31;;;;;;;7.88;5.95;;;12.40;99.90;;;;;;4825920;29;20122;-71
2022/04/15 11:16:59;;;;;;;9.25;5.95;;;12.50;99.90;;;;;;4810350;29;20062;-70
2022/04/15 11:19:26;;;;;;;6.47;5.68;;;12.50;99.90;;;;;;4826205;29;20077;-70
2022/04/15 11:21:53;;;;;;;8.85;6.38;;;12.50;99.90;;;;;;4809472;29;20119;-71
2022/04/15 11:24:27;;;;;;;7.13;5.95;;;12.40;99.90;;;;;;4825383;29;20060;-71
2022/04/15 11:27:03;;;;;;;6.80;5.93;;;12.40;99.90;;;;;;4808478;29;20058;-70
2022/04/15 11:29:31;;;;;;;9.38;5.80;;;12.40;99.90;;;;;;4825096;29;20441;-70
2022/04/15 11:32:15;;;;;;;8.65;6.20;;;12.60;99.90;;;;;;4824399;29;20109;-70
2022/04/15 11:34:42;;;;;;;8.15;6.45;;;12.60;99.90;;;;;;4824977;29;20484;-70
2022/04/15 11:37:09;;;;;;;7.30;5.90;;;12.60;99.90;;;;;;4808937;29;20062;-70
2022/04/15 11:39:35;;;;;;;9.50;6.75;;;12.50;99.90;;;;;;4809264;29;20054;-70
2022/04/15 11:42:08;;;;;;;7.63;6.22;;;12.40;99.90;;;;;;4825343;29;20070;-71
2022/04/15 11:44:34;;;;;;;10.10;7.00;;;12.40;99.90;;;;;;4809316;29;20066;-70
2022/04/15 11:47:16;;;;;;;7.72;6.45;;;12.30;99.90;;;;;;4824836;29;20058;-70
2022/04/15 11:49:43;;;;;;;9.70;6.63;;;12.30;99.90;;;;;;4824774;29;20401;-71
2022/04/15 11:52:08;;;;;;;11.15;6.50;;;12.40;99.90;;;;;;4823918;29;20062;-71
2022/04/15 11:54:38;;;;;;;7.10;6.40;;;12.40;99.90;;;;;;4825790;29;20065;-70
2022/04/15 11:57:05;;;;;;;8.25;6.60;;;12.40;99.90;;;;;;4824573;29;20530;-71
2022/04/15 11:59:43;;;;;;;6.75;5.97;;;12.40;99.90;;;;;;4825618;29;20122;-70
2022/04/15 12:02:12;;;;;;;7.90;6.30;;;12.50;99.90;;;;;;4823664;29;20058;-70
2022/04/15 12:04:51;;;;;;;7.07;5.90;;;12.50;99.90;;;;;;4825776;29;20476;-70
2022/04/15 12:07:21;;;;;;;8.18;6.03;;;12.60;99.90;;;;;;4824251;29;20458;-70
2022/04/15 12:09:48;;;;;;;7.75;5.85;;;12.50;99.90;;;;;;4809130;29;20503;-70
2022/04/15 12:12:15;;;;;;;7.38;5.45;;;12.70;99.90;;;;;;4812290;29;20164;-68
2022/04/15 12:14:41;;;;;;;6.00;4.97;;;12.80;99.90;;;;;;4776382;29;20479;-70
2022/04/15 12:17:14;;;;;;;7.35;5.80;;;12.90;99.90;;;;;;4806941;29;20173;-70
2022/04/15 12:19:40;;;;;;;9.32;6.32;;;12.80;99.90;;;;;;4816345;29;20198;-70
2022/04/15 12:22:07;;;;;;;6.28;5.40;;;12.70;99.90;;;;;;4814918;29;20483;-69
2022/04/15 12:24:33;;;;;;;7.85;5.90;;;12.80;99.90;;;;;;4790665;29;20550;-69
2022/04/15 12:27:02;;;;;;;6.45;5.68;;;12.70;99.90;;;;;;4806413;29;20167;-70
2022/04/15 12:29:51;;;;;;;8.35;6.03;;;12.70;99.90;;;;;;4800135;29;20403;-70
2022/04/15 12:32:39;;;;;;;7.25;5.45;;;12.70;99.90;;;;;;4808322;29;20163;-71
2022/04/15 12:35:12;;;;;;;7.28;5.85;;;12.60;99.90;;;;;;4808205;29;20054;-70
2022/04/15 12:37:57;;;;;;;8.18;6.50;;;12.60;99.90;;;;;;4823991;29;20058;-69
2022/04/15 12:40:24;;;;;;;7.57;5.70;;;12.50;99.90;;;;;;4824932;29;20186;-70
2022/04/15 12:42:51;;;;;;;7.70;5.80;;;12.60;99.90;;;;;;4823960;29;20504;-71
2022/04/15 12:45:20;;;;;;;7.78;5.82;;;12.70;99.90;;;;;;4824396;29;20062;-71
2022/04/15 12:48:05;;;;;;;6.95;5.85;;;12.60;99.90;;;;;;4790069;29;20065;-70
2022/04/15 12:50:35;;;;;;;7.70;5.32;;;12.50;99.90;;;;;;4805121;29;20139;-70
2022/04/15 12:53:23;;;;;;;7.47;6.50;;;12.50;99.90;;;;;;4807734;29;20606;-69
2022/04/15 12:55:50;;;;;;;8.07;5.70;;;12.40;99.90;;;;;;4807640;29;20059;-70
2022/04/15 12:58:26;;;;;;;7.25;5.88;;;12.30;99.90;;;;;;4824104;29;20054;-69